Time;durP1;ratioP1;P1;durP2;ratioP2;P2;SDS_P1;SDS_P2;PMS_P1;PMS_P2;Temp;Humidity;BMP_temperature;BMP_pressure;BME280_temperature;BME280_humidity;BME280_pressure;Samples;Min_cycle;Max_cycle;Signal;HPM_P1;HPM_P2
2024/02/08 00:02:25;;;;;;;12.20;5.75;;;5.20;94.50;;;;;;6241698;23;20059;-67
2024/02/08 00:05:10;;;;;;;8.38;4.68;;;5.10;94.60;;;;;;6240212;23;20345;-67
2024/02/08 00:07:56;;;;;;;13.05;6.38;;;5.10;94.60;;;;;;6241917;23;20014;-67
2024/02/08 00:10:42;;;;;;;15.07;4.85;;;5.10;94.70;;;;;;6242442;23;20004;-67
2024/02/08 00:13:28;;;;;;;13.20;5.07;;;5.10;94.80;;;;;;6242611;23;20012;-67
2024/02/08 00:16:14;;;;;;;10.25;4.47;;;5.10;94.80;;;;;;6241454;23;20027;-67
2024/02/08 00:19:02;;;;;;;11.98;4.82;;;5.10;94.80;;;;;;6241372;22;20015;-67
2024/02/08 00:21:50;;;;;;;12.68;4.63;;;5.00;94.80;;;;;;6239153;23;20012;-67
2024/02/08 00:24:36;;;;;;;9.80;4.00;;;5.00;94.90;;;;;;6242470;23;20460;-67
2024/02/08 00:27:22;;;;;;;13.07;4.57;;;5.00;94.90;;;;;;6242052;23;20008;-66
2024/02/08 00:30:08;;;;;;;15.20;5.30;;;5.00;94.90;;;;;;6220174;23;20019;-66
2024/02/08 00:32:54;;;;;;;10.05;3.88;;;5.00;95.00;;;;;;6242436;23;20015;-66
2024/02/08 00:35:40;;;;;;;12.90;4.25;;;5.00;95.00;;;;;;6242056;23;20005;-66
2024/02/08 00:38:30;;;;;;;11.43;4.13;;;5.00;95.00;;;;;;6242045;23;20035;-67
2024/02/08 00:41:16;;;;;;;11.15;4.03;;;4.90;95.00;;;;;;6238200;22;20018;-66
2024/02/08 00:44:03;;;;;;;8.10;4.57;;;4.90;95.10;;;;;;6210670;23;20071;-67
2024/02/08 00:46:51;;;;;;;8.75;4.32;;;4.90;95.10;;;;;;6211328;23;20011;-67
2024/02/08 00:49:39;;;;;;;9.75;4.20;;;4.80;95.10;;;;;;6211351;23;20542;-66
2024/02/08 00:52:25;;;;;;;9.77;3.88;;;4.80;95.20;;;;;;6211352;23;20031;-67
2024/02/08 00:55:10;;;;;;;8.30;3.88;;;4.80;95.20;;;;;;6209814;23;20317;-67
2024/02/08 00:57:56;;;;;;;10.23;3.60;;;4.80;95.30;;;;;;6210269;23;20017;-66
2024/02/08 01:00:43;;;;;;;10.52;4.50;;;4.80;95.30;;;;;;6207441;23;20008;-67
2024/02/08 01:03:29;;;;;;;11.23;4.38;;;4.70;95.30;;;;;;6210621;23;20028;-66
2024/02/08 01:06:15;;;;;;;8.00;3.90;;;4.70;95.30;;;;;;6211293;23;20020;-66
2024/02/08 01:09:00;;;;;;;9.45;4.10;;;4.70;95.30;;;;;;6210210;23;20004;-66
2024/02/08 01:11:46;;;;;;;9.45;3.95;;;4.70;95.30;;;;;;6210075;23;20012;-66
2024/02/08 01:14:32;;;;;;;9.23;3.45;;;4.60;95.40;;;;;;6210471;23;20012;-66
2024/02/08 01:17:19;;;;;;;11.82;4.72;;;4.50;95.50;;;;;;6211497;23;20104;-66
2024/02/08 01:20:06;;;;;;;9.85;3.85;;;4.50;95.50;;;;;;6210333;23;20457;-66
2024/02/08 01:22:52;;;;;;;15.40;4.45;;;4.50;95.60;;;;;;6210486;23;20013;-66
2024/02/08 01:25:41;;;;;;;8.35;3.30;;;4.50;95.70;;;;;;6211339;23;20008;-66
2024/02/08 01:28:27;;;;;;;8.23;3.75;;;4.50;95.70;;;;;;6210328;23;20438;-67
2024/02/08 01:31:14;;;;;;;12.80;3.83;;;4.50;95.70;;;;;;6209277;23;20009;-67
2024/02/08 01:34:00;;;;;;;12.50;3.95;;;4.50;95.80;;;;;;6189418;23;20095;-66
2024/02/08 01:36:49;;;;;;;6.50;2.70;;;4.50;95.80;;;;;;6210238;23;20509;-67
2024/02/08 01:39:35;;;;;;;7.38;3.20;;;4.40;95.80;;;;;;6190391;23;20004;-67
2024/02/08 01:42:21;;;;;;;5.00;3.17;;;4.40;95.80;;;;;;6224653;23;20107;-66
2024/02/08 01:45:29;;;;;;;7.93;3.20;;;4.50;95.90;;;;;;6241141;23;20004;-67
2024/02/08 01:48:16;;;;;;;9.63;3.33;;;4.50;96.00;;;;;;6240792;23;20008;-64
2024/02/08 01:51:04;;;;;;;6.45;3.15;;;4.50;96.00;;;;;;6241037;23;20095;-63
2024/02/08 01:53:51;;;;;;;9.57;3.45;;;4.50;96.00;;;;;;6241505;23;20065;-63
2024/02/08 01:56:41;;;;;;;7.55;3.03;;;4.50;96.00;;;;;;6238651;23;20020;-64
2024/02/08 01:59:28;;;;;;;8.15;4.00;;;4.50;96.10;;;;;;6242350;23;20012;-63
2024/02/08 02:02:15;;;;;;;13.15;3.72;;;4.50;96.10;;;;;;6240656;23;20349;-64
2024/02/08 02:05:02;;;;;;;9.20;3.30;;;4.50;96.20;;;;;;6238638;23;20008;-65
2024/02/08 02:07:48;;;;;;;9.77;3.17;;;4.50;96.20;;;;;;6240691;23;20295;-64
2024/02/08 02:10:34;;;;;;;8.95;4.35;;;4.50;96.20;;;;;;6242416;23;20020;-64
2024/02/08 02:13:20;;;;;;;8.65;3.67;;;4.50;96.30;;;;;;6241559;23;20464;-65
2024/02/08 02:16:06;;;;;;;7.75;3.08;;;4.50;96.30;;;;;;6241528;23;20023;-64
2024/02/08 02:18:52;;;;;;;6.70;2.60;;;4.50;96.40;;;;;;6241922;22;20012;-64
2024/02/08 02:21:39;;;;;;;5.45;3.33;;;4.50;96.40;;;;;;6240183;23;20437;-64
2024/02/08 02:24:25;;;;;;;6.45;3.55;;;4.50;96.50;;;;;;6240950;23;20070;-65
2024/02/08 02:27:12;;;;;;;6.88;3.45;;;4.50;96.50;;;;;;6241174;23;20078;-64
2024/02/08 02:29:59;;;;;;;6.85;3.67;;;4.60;96.50;;;;;;6241736;23;20095;-65
2024/02/08 02:32:52;;;;;;;9.55;3.30;;;4.50;96.50;;;;;;6238682;23;20012;-64
2024/02/08 02:35:38;;;;;;;8.43;3.13;;;4.60;96.60;;;;;;6241582;23;20356;-64
2024/02/08 02:38:24;;;;;;;13.15;3.90;;;4.60;96.60;;;;;;6239455;23;20012;-64
2024/02/08 02:41:10;;;;;;;10.40;3.05;;;4.60;96.70;;;;;;6241186;23;20012;-64
2024/02/08 02:43:56;;;;;;;10.80;2.70;;;4.60;96.70;;;;;;6241952;23;20341;-64
2024/02/08 02:46:42;;;;;;;9.07;3.10;;;4.60;96.70;;;;;;6243107;23;20096;-64
2024/02/08 02:49:28;;;;;;;9.70;2.75;;;4.60;96.70;;;;;;6241896;23;20051;-64
2024/02/08 02:52:14;;;;;;;7.78;2.92;;;4.60;96.80;;;;;;6241758;23;20008;-65
2024/02/08 02:55:00;;;;;;;7.78;2.70;;;4.60;96.80;;;;;;6242684;23;20004;-65
2024/02/08 02:57:47;;;;;;;8.98;2.95;;;4.60;97.00;;;;;;6242392;23;20023;-64
2024/02/08 03:00:36;;;;;;;8.05;3.60;;;4.60;96.80;;;;;;6242452;23;20019;-64
2024/02/08 03:03:22;;;;;;;10.85;4.32;;;4.60;96.90;;;;;;6243439;23;20008;-64
2024/02/08 03:06:14;;;;;;;8.43;3.00;;;4.60;96.90;;;;;;6242010;23;20040;-65
2024/02/08 03:09:05;;;;;;;10.18;3.15;;;4.60;97.00;;;;;;6240762;23;20015;-64
2024/02/08 03:11:52;;;;;;;9.88;3.22;;;4.60;97.00;;;;;;6240824;23;20008;-64
2024/02/08 03:14:57;;;;;;;7.47;2.90;;;4.60;97.00;;;;;;6242846;23;20012;-65
2024/02/08 03:17:44;;;;;;;14.25;3.65;;;4.60;97.10;;;;;;6242564;23;20027;-64
2024/02/08 03:20:30;;;;;;;9.43;3.13;;;4.60;97.00;;;;;;6242658;23;20043;-64
2024/02/08 03:23:15;;;;;;;9.55;3.28;;;4.70;97.10;;;;;;6242057;23;20012;-64
2024/02/08 03:26:04;;;;;;;11.57;3.40;;;4.60;97.00;;;;;;6240075;23;20008;-64
2024/02/08 03:28:51;;;;;;;9.23;3.20;;;4.60;97.10;;;;;;6243339;23;20008;-64
2024/02/08 03:31:45;;;;;;;7.95;3.50;;;4.60;97.10;;;;;;6221269;23;20050;-65
2024/02/08 03:34:31;;;;;;;11.15;3.35;;;4.60;97.20;;;;;;6242027;23;20012;-65
2024/02/08 03:37:17;;;;;;;13.13;4.57;;;4.60;97.20;;;;;;6241660;23;20421;-65
2024/02/08 03:40:03;;;;;;;8.55;2.75;;;4.70;97.30;;;;;;6243357;23;20093;-65
2024/02/08 03:42:50;;;;;;;6.95;3.53;;;4.70;97.20;;;;;;6240147;23;20062;-65
2024/02/08 03:45:40;;;;;;;11.07;4.05;;;4.70;97.30;;;;;;6241845;23;20012;-64
2024/02/08 03:48:26;;;;;;;9.93;3.42;;;4.70;97.50;;;;;;6242367;23;20012;-64
2024/02/08 03:51:13;;;;;;;11.10;3.58;;;4.70;97.30;;;;;;6242741;23;20018;-65
2024/02/08 03:54:00;;;;;;;11.80;3.53;;;4.70;97.30;;;;;;6241519;23;20166;-64
2024/02/08 03:56:49;;;;;;;9.73;3.80;;;4.70;97.40;;;;;;6242170;23;20509;-64
2024/02/08 03:59:40;;;;;;;8.73;3.72;;;4.70;97.40;;;;;;6240898;23;20353;-65
2024/02/08 04:02:26;;;;;;;6.32;2.63;;;4.70;97.40;;;;;;6240557;23;20012;-64
2024/02/08 04:05:22;;;;;;;10.15;3.80;;;4.70;97.40;;;;;;6242281;23;20140;-65
2024/02/08 04:54:19;;;;;;;12.20;3.10;;;4.80;97.50;;;;;;6241777;23;20034;-66
2024/02/08 04:57:07;;;;;;;9.55;3.78;;;4.80;97.60;;;;;;6241651;23;20026;-66
2024/02/08 04:59:53;;;;;;;9.77;4.10;;;4.80;97.70;;;;;;6241938;23;20332;-65
2024/02/08 05:02:40;;;;;;;7.68;3.42;;;4.70;97.60;;;;;;6238541;23;20342;-66
2024/02/08 05:05:26;;;;;;;10.32;4.43;;;4.70;97.60;;;;;;6242313;23;20019;-67
2024/02/08 05:08:12;;;;;;;7.18;2.83;;;4.70;97.70;;;;;;6241332;23;20011;-67
2024/02/08 05:10:59;;;;;;;8.50;3.78;;;4.70;97.70;;;;;;6242928;23;20020;-68
2024/02/08 05:13:50;;;;;;;6.65;3.15;;;4.60;97.70;;;;;;6241383;23;20021;-65
2024/02/08 05:16:37;;;;;;;5.90;3.13;;;4.60;97.80;;;;;;6240520;23;20020;-65
2024/02/08 05:19:23;;;;;;;7.25;3.05;;;4.60;97.70;;;;;;6239339;22;20011;-65
2024/02/08 05:22:11;;;;;;;8.00;3.25;;;4.60;97.80;;;;;;6241797;23;20095;-65
2024/02/08 05:24:58;;;;;;;8.05;3.65;;;4.60;97.80;;;;;;6242254;23;20004;-65
2024/02/08 05:27:45;;;;;;;11.88;3.95;;;4.60;97.80;;;;;;6240617;23;20068;-65
2024/02/08 05:30:34;;;;;;;7.10;3.65;;;4.60;97.80;;;;;;6241202;23;20011;-65
2024/02/08 05:33:22;;;;;;;6.80;3.42;;;4.70;97.90;;;;;;6241355;23;20038;-65
2024/02/08 05:36:12;;;;;;;8.00;3.30;;;4.70;97.90;;;;;;6240099;23;20024;-65
2024/02/08 05:38:59;;;;;;;8.45;3.42;;;4.70;97.90;;;;;;6240270;23;20364;-65
2024/02/08 05:41:45;;;;;;;10.88;4.72;;;4.70;97.90;;;;;;6241981;22;20024;-66
2024/02/08 05:44:31;;;;;;;10.88;4.35;;;4.70;97.90;;;;;;6240971;23;20093;-66
2024/02/08 05:47:25;;;;;;;12.30;4.68;;;4.70;97.90;;;;;;6240862;23;20347;-66
2024/02/08 05:50:21;;;;;;;9.25;3.47;;;4.80;98.00;;;;;;6241926;23;20040;-66
2024/02/08 05:53:07;;;;;;;9.05;3.60;;;4.70;97.90;;;;;;6239247;23;20046;-66
2024/02/08 05:55:53;;;;;;;15.57;4.05;;;4.80;98.00;;;;;;6238851;23;20055;-67
2024/02/08 05:58:39;;;;;;;6.32;2.92;;;4.80;97.90;;;;;;6240383;23;20016;-67
2024/02/08 06:01:25;;;;;;;9.18;4.00;;;4.70;97.90;;;;;;6240677;23;20036;-67
2024/02/08 06:04:12;;;;;;;9.13;3.55;;;4.70;98.20;;;;;;6241351;23;20016;-66
2024/02/08 06:07:07;;;;;;;8.88;3.80;;;4.70;98.00;;;;;;6241665;23;20004;-66
2024/02/08 06:10:07;;;;;;;7.57;4.05;;;4.70;98.00;;;;;;6240124;23;20090;-67
2024/02/08 06:12:59;;;;;;;11.05;4.13;;;4.70;98.00;;;;;;6233055;23;20565;-67
2024/02/08 06:15:53;;;;;;;14.60;5.47;;;4.70;98.10;;;;;;6241358;23;20019;-67
2024/02/08 07:38:09;;;;;;;14.55;8.80;;;4.40;98.90;;;;;;6301373;22;20029;-66
2024/02/08 07:40:55;;;;;;;17.20;9.00;;;4.40;98.90;;;;;;6303032;22;20554;-66
2024/02/08 07:43:53;;;;;;;17.92;9.90;;;4.40;98.90;;;;;;6304033;22;20076;-67
2024/02/08 07:46:47;;;;;;;23.38;11.75;;;4.40;99.00;;;;;;6303807;22;20011;-64
2024/02/08 07:49:42;;;;;;;18.33;10.25;;;4.50;99.20;;;;;;6303839;22;20014;-64
2024/02/08 07:52:29;;;;;;;22.05;11.48;;;4.40;99.20;;;;;;6302026;22;20008;-62
2024/02/08 07:55:20;;;;;;;23.08;12.27;;;4.40;99.30;;;;;;6303594;22;20018;-60
2024/02/08 07:58:09;;;;;;;22.77;12.57;;;4.50;99.40;;;;;;6299685;22;20118;-61
2024/02/08 08:00:56;;;;;;;23.67;14.07;;;4.50;99.40;;;;;;6303282;22;20008;-61
2024/02/08 08:03:44;;;;;;;23.88;12.32;;;4.50;99.50;;;;;;6305925;22;20067;-62
2024/02/08 08:06:46;;;;;;;24.60;13.07;;;4.50;99.60;;;;;;6316984;22;20051;-63
2024/02/08 08:09:36;;;;;;;22.05;12.85;;;4.60;99.60;;;;;;6302818;22;20446;-62
2024/02/08 08:12:22;;;;;;;21.75;13.07;;;4.50;99.60;;;;;;6305074;22;20332;-61
2024/02/08 08:17:59;;;;;;;21.15;13.25;;;4.60;99.90;;;;;;6302415;22;20041;-61
2024/02/08 08:20:58;;;;;;;19.08;12.40;;;4.60;99.90;;;;;;6273183;22;20357;-61
2024/02/08 08:23:59;;;;;;;22.27;12.35;;;4.70;99.90;;;;;;6271896;22;20070;-61
2024/02/08 08:26:45;;;;;;;22.80;12.95;;;4.70;99.80;;;;;;6272337;22;20031;-62
2024/02/08 08:29:42;;;;;;;24.13;13.38;;;4.70;99.80;;;;;;6271122;22;20008;-61
2024/02/08 08:41:14;;;;;;;18.73;11.25;;;5.00;99.80;;;;;;6272558;22;20035;-64
2024/02/08 08:44:06;;;;;;;15.68;10.05;;;5.00;99.80;;;;;;6271270;22;20015;-64
2024/02/08 08:46:52;;;;;;;18.15;9.57;;;5.00;99.80;;;;;;6270456;22;20023;-64
2024/02/08 08:49:39;;;;;;;18.38;9.23;;;5.00;99.80;;;;;;6271300;22;20090;-64
2024/02/08 08:52:25;;;;;;;17.40;9.68;;;5.10;99.80;;;;;;6273135;22;20050;-62
2024/02/08 08:55:16;;;;;;;17.35;10.15;;;5.10;99.80;;;;;;6272522;22;20329;-62
2024/02/08 08:58:03;;;;;;;15.82;9.65;;;5.10;99.80;;;;;;6271794;22;20054;-61
2024/02/08 09:00:58;;;;;;;16.30;9.35;;;5.10;99.80;;;;;;6270238;22;20007;-62
2024/02/08 09:03:55;;;;;;;17.25;10.85;;;5.20;99.80;;;;;;6273361;22;20039;-61
2024/02/08 09:06:41;;;;;;;14.38;9.32;;;5.20;99.80;;;;;;6271832;22;20475;-62
2024/02/08 09:09:27;;;;;;;20.38;10.40;;;5.20;99.80;;;;;;6272115;22;20753;-62
2024/02/08 09:12:13;;;;;;;15.20;9.35;;;5.30;99.80;;;;;;6272701;22;20007;-62
2024/02/08 09:14:59;;;;;;;14.70;9.25;;;5.30;99.80;;;;;;6272880;22;20358;-62
2024/02/08 09:17:51;;;;;;;16.90;9.68;;;5.30;99.70;;;;;;6264112;22;20034;-63
2024/02/08 09:20:37;;;;;;;16.38;10.95;;;5.40;99.80;;;;;;6247897;22;20007;-62
2024/02/08 09:23:25;;;;;;;15.60;10.20;;;5.40;99.70;;;;;;6270985;22;20090;-62
2024/02/08 09:26:12;;;;;;;19.63;12.27;;;5.40;99.70;;;;;;6270569;22;20014;-62
2024/02/08 09:29:00;;;;;;;20.85;12.43;;;5.40;99.80;;;;;;6270362;22;20515;-62
2024/02/08 09:31:46;;;;;;;20.98;12.63;;;5.40;99.80;;;;;;6271570;22;20043;-62
2024/02/08 09:34:40;;;;;;;21.00;12.95;;;5.50;99.80;;;;;;6271726;22;20103;-63
2024/02/08 09:37:29;;;;;;;24.00;12.45;;;5.60;99.80;;;;;;6270106;22;20062;-62
2024/02/08 09:43:17;;;;;;;22.38;14.05;;;5.70;99.80;;;;;;6272058;22;20061;-64
2024/02/08 09:46:16;;;;;;;26.05;14.10;;;5.70;99.90;;;;;;6272779;22;20502;-61
2024/02/08 09:49:12;;;;;;;22.42;13.48;;;5.90;99.90;;;;;;6271525;22;20008;-62
2024/02/08 09:52:14;;;;;;;19.08;12.55;;;5.90;99.70;;;;;;6270696;22;20371;-62
2024/02/08 09:55:08;;;;;;;19.30;11.55;;;5.90;99.70;;;;;;6270515;22;20466;-62
2024/02/08 09:57:54;;;;;;;21.48;11.77;;;5.80;99.60;;;;;;6271506;22;20019;-62
2024/02/08 10:00:57;;;;;;;24.52;13.00;;;5.90;99.70;;;;;;6271597;22;20060;-63
2024/02/08 10:03:46;;;;;;;20.65;12.30;;;5.90;99.70;;;;;;6270746;22;20008;-62
2024/02/08 10:07:15;;;;;;;17.77;11.40;;;6.00;99.70;;;;;;6270897;22;20004;-62
2024/02/08 10:09:47;;;;;;;20.83;12.07;;;6.00;99.70;;;;;;6273489;22;20015;-62
2024/02/08 10:12:50;;;;;;;19.05;11.57;;;6.10;99.70;;;;;;6272466;22;20008;-62
2024/02/08 10:15:39;;;;;;;17.08;11.02;;;6.10;99.60;;;;;;6271449;22;20018;-61
2024/02/08 10:18:37;;;;;;;18.05;11.35;;;6.10;99.60;;;;;;6272416;22;20452;-62
2024/02/08 10:21:23;;;;;;;19.45;11.43;;;6.10;99.60;;;;;;6269127;22;20070;-62
2024/02/08 10:24:25;;;;;;;18.48;11.52;;;6.20;99.60;;;;;;6268656;22;20069;-61
2024/02/08 10:27:22;;;;;;;19.00;11.25;;;6.20;99.60;;;;;;6269725;22;20391;-62
2024/02/08 10:30:09;;;;;;;22.20;11.98;;;6.20;99.60;;;;;;6273053;22;20030;-62
2024/02/08 10:32:55;;;;;;;17.70;11.98;;;6.30;99.60;;;;;;6269279;22;20015;-61
2024/02/08 10:35:41;;;;;;;16.83;10.85;;;6.40;99.60;;;;;;6271317;22;20011;-62
2024/02/08 10:38:32;;;;;;;16.17;10.75;;;6.40;99.50;;;;;;6272129;22;20159;-62
2024/02/08 10:41:19;;;;;;;18.30;10.10;;;6.50;99.50;;;;;;6271753;22;20018;-62
2024/02/08 10:44:06;;;;;;;16.02;10.40;;;6.60;99.50;;;;;;6271831;22;20008;-62
2024/02/08 10:46:55;;;;;;;16.15;11.30;;;6.60;99.40;;;;;;6270177;22;20016;-62
2024/02/08 10:49:46;;;;;;;16.52;10.85;;;6.60;99.40;;;;;;6272865;22;20008;-62
2024/02/08 10:52:33;;;;;;;18.70;11.20;;;6.50;99.30;;;;;;6271168;22;20371;-62
2024/02/08 10:55:30;;;;;;;21.08;12.60;;;6.70;99.30;;;;;;6271068;22;20340;-62
2024/02/08 10:58:27;;;;;;;19.05;10.75;;;6.70;99.30;;;;;;6271876;22;20020;-61
2024/02/08 11:01:32;;;;;;;23.45;12.80;;;6.70;99.30;;;;;;6271757;22;20114;-62
2024/02/08 11:04:21;;;;;;;18.25;10.98;;;6.80;99.20;;;;;;6270225;22;20483;-63
2024/02/08 11:07:33;;;;;;;19.25;12.02;;;6.80;99.20;;;;;;6249436;22;20390;-61
2024/02/08 11:10:23;;;;;;;17.95;11.05;;;6.90;99.20;;;;;;6269510;22;20014;-62
2024/02/08 11:13:15;;;;;;;18.75;12.13;;;7.00;99.20;;;;;;6246061;22;20008;-61
2024/02/08 11:16:19;;;;;;;18.95;11.48;;;7.10;99.20;;;;;;6280946;22;20008;-60
2024/02/08 11:19:05;;;;;;;22.73;12.13;;;7.10;99.10;;;;;;6284924;22;20012;-61
2024/02/08 11:21:51;;;;;;;18.02;12.05;;;7.20;99.10;;;;;;6271884;22;20302;-61
2024/02/08 11:24:40;;;;;;;19.45;11.05;;;7.20;99.10;;;;;;6273811;22;20012;-61
2024/02/08 11:27:29;;;;;;;18.60;12.30;;;7.30;99.10;;;;;;6257752;22;20069;-61
2024/02/08 11:30:32;;;;;;;16.88;11.68;;;7.40;99.00;;;;;;6271479;22;20405;-61
2024/02/08 11:33:31;;;;;;;18.67;13.43;;;7.40;98.90;;;;;;6273468;22;20027;-63
2024/02/08 11:36:21;;;;;;;24.75;12.68;;;7.40;98.80;;;;;;6273340;22;20475;-61
2024/02/08 11:39:26;;;;;;;19.15;11.63;;;7.50;98.90;;;;;;6269741;22;20012;-61
2024/02/08 11:42:16;;;;;;;22.95;11.00;;;7.60;98.80;;;;;;6269370;22;20008;-61
2024/02/08 11:45:08;;;;;;;21.48;11.07;;;7.60;98.70;;;;;;6270615;22;20149;-61
2024/02/08 11:47:58;;;;;;;18.73;12.82;;;7.60;98.50;;;;;;6270836;22;20003;-61
2024/02/08 11:50:47;;;;;;;18.88;11.60;;;7.60;98.50;;;;;;6271628;22;20004;-61
2024/02/08 11:53:33;;;;;;;21.35;11.75;;;7.60;98.50;;;;;;6272424;22;20023;-62
2024/02/08 11:56:20;;;;;;;16.50;11.00;;;7.70;98.50;;;;;;6268564;22;20020;-61
2024/02/08 11:59:08;;;;;;;17.52;12.18;;;7.70;98.40;;;;;;6272726;22;20062;-62
2024/02/08 12:01:58;;;;;;;18.23;11.90;;;7.80;98.40;;;;;;6273713;22;20440;-62
2024/02/08 12:04:48;;;;;;;19.50;11.98;;;7.80;98.40;;;;;;6273249;22;20586;-61
2024/02/08 12:07:34;;;;;;;24.48;10.82;;;7.90;98.40;;;;;;6269755;22;20007;-60
2024/02/08 12:10:26;;;;;;;16.95;11.23;;;7.90;98.40;;;;;;6272833;22;20355;-61
2024/02/08 12:13:12;;;;;;;21.75;13.05;;;8.00;98.30;;;;;;6270725;22;20413;-62
2024/02/08 12:16:01;;;;;;;21.13;12.23;;;8.10;98.20;;;;;;6273287;22;20094;-62
2024/02/08 12:18:55;;;;;;;22.50;11.82;;;8.20;98.10;;;;;;6270561;22;20043;-61
2024/02/08 12:21:42;;;;;;;20.65;12.10;;;8.20;98.00;;;;;;6272180;22;20352;-61
2024/02/08 12:24:31;;;;;;;24.40;13.57;;;8.10;98.00;;;;;;6258416;22;20359;-62
2024/02/08 12:27:25;;;;;;;20.38;11.82;;;8.20;98.00;;;;;;6273402;22;20011;-61
2024/02/08 12:30:12;;;;;;;18.75;11.75;;;8.10;98.00;;;;;;6271135;22;20012;-61
2024/02/08 12:32:58;;;;;;;19.25;11.50;;;8.10;98.00;;;;;;6249095;22;20012;-62
2024/02/08 12:35:46;;;;;;;20.85;11.48;;;8.20;98.00;;;;;;6272219;22;20012;-61
2024/02/08 12:38:32;;;;;;;20.60;12.93;;;8.20;97.90;;;;;;6268847;22;20077;-62
2024/02/08 12:41:21;;;;;;;26.58;11.77;;;8.20;97.90;;;;;;6272324;22;20065;-62
2024/02/08 12:44:07;;;;;;;19.67;11.13;;;8.30;97.90;;;;;;6271333;22;20083;-61
2024/02/08 12:46:55;;;;;;;28.48;13.20;;;8.20;97.80;;;;;;6269677;22;20007;-61
2024/02/08 12:49:44;;;;;;;22.02;12.32;;;8.20;97.70;;;;;;6269352;22;20012;-62
2024/02/08 12:52:33;;;;;;;21.92;11.73;;;8.20;97.60;;;;;;6272965;22;20008;-62
2024/02/08 12:55:19;;;;;;;21.13;10.93;;;8.20;97.60;;;;;;6272944;22;20016;-62
2024/02/08 12:58:05;;;;;;;21.80;11.43;;;8.20;97.50;;;;;;6271520;22;20020;-63
2024/02/08 13:01:04;;;;;;;20.83;11.50;;;8.20;97.50;;;;;;6270415;22;20003;-62
2024/02/08 13:03:54;;;;;;;18.25;11.77;;;8.20;97.50;;;;;;6269841;22;20388;-62
2024/02/08 13:06:41;;;;;;;19.33;11.45;;;8.20;97.50;;;;;;6269509;22;20015;-63
2024/02/08 13:09:29;;;;;;;16.35;10.93;;;8.10;97.50;;;;;;6273022;22;20459;-62
2024/02/08 13:12:20;;;;;;;20.58;10.85;;;8.10;97.40;;;;;;6270741;22;20008;-62
2024/02/08 13:15:07;;;;;;;21.08;11.80;;;8.10;97.40;;;;;;6272365;22;20082;-62
2024/02/08 13:17:56;;;;;;;22.40;11.93;;;8.10;97.40;;;;;;6267763;22;20093;-62
2024/02/08 13:20:42;;;;;;;22.05;12.63;;;8.10;97.40;;;;;;6272041;22;20015;-62
2024/02/08 13:23:30;;;;;;;20.42;11.88;;;8.10;97.40;;;;;;6272924;22;20349;-62
2024/02/08 13:26:17;;;;;;;23.45;11.13;;;8.10;97.40;;;;;;6271890;22;20008;-62
2024/02/08 13:29:03;;;;;;;23.10;12.52;;;8.10;97.40;;;;;;6271121;22;20046;-62
2024/02/08 13:31:51;;;;;;;21.05;12.15;;;8.10;97.40;;;;;;6273240;22;20007;-62
2024/02/08 13:34:40;;;;;;;19.55;11.13;;;8.00;97.40;;;;;;6267155;22;20087;-62
2024/02/08 13:37:29;;;;;;;19.17;10.82;;;8.00;97.40;;;;;;6272783;22;20022;-62
2024/02/08 13:40:15;;;;;;;21.20;10.70;;;7.90;97.40;;;;;;6271001;22;20023;-62
2024/02/08 13:43:01;;;;;;;18.33;12.30;;;7.90;97.40;;;;;;6271887;22;20007;-62
2024/02/08 13:45:47;;;;;;;18.45;11.68;;;7.90;97.40;;;;;;6271448;22;20008;-61
2024/02/08 13:48:33;;;;;;;29.27;11.63;;;7.90;97.40;;;;;;6271398;22;20070;-62
2024/02/08 13:51:20;;;;;;;18.77;11.43;;;7.90;97.40;;;;;;6250300;22;20018;-62
2024/02/08 13:54:08;;;;;;;22.10;12.23;;;7.90;97.50;;;;;;6270371;22;20073;-62
2024/02/08 13:56:55;;;;;;;26.08;12.02;;;7.80;97.50;;;;;;6269041;22;20349;-62
2024/02/08 13:59:46;;;;;;;20.08;12.57;;;7.80;97.50;;;;;;6248230;22;20015;-62
2024/02/08 14:02:32;;;;;;;22.70;12.20;;;7.90;97.50;;;;;;6271400;22;20008;-62
2024/02/08 14:05:23;;;;;;;24.60;12.63;;;7.80;97.50;;;;;;6269956;22;20110;-62
2024/02/08 14:08:16;;;;;;;18.40;10.48;;;7.80;97.40;;;;;;6267781;22;20007;-62
2024/02/08 14:11:09;;;;;;;20.35;11.27;;;7.80;97.40;;;;;;6269734;22;20011;-62
2024/02/08 14:13:56;;;;;;;19.73;11.18;;;7.70;97.40;;;;;;6268341;22;20090;-62
2024/02/08 14:16:52;;;;;;;22.92;12.15;;;7.70;97.40;;;;;;6249080;22;20015;-62
2024/02/08 14:19:42;;;;;;;21.20;10.77;;;7.70;97.30;;;;;;6271484;22;20019;-62
2024/02/08 14:22:38;;;;;;;25.63;13.60;;;7.70;97.30;;;;;;6269596;22;20360;-62
2024/02/08 14:25:37;;;;;;;22.88;11.73;;;7.70;97.40;;;;;;6273978;22;20012;-62
2024/02/08 14:28:23;;;;;;;22.83;13.27;;;7.70;97.40;;;;;;6287666;22;20487;-63
2024/02/08 14:31:09;;;;;;;27.02;12.98;;;7.70;97.40;;;;;;6274350;22;20011;-62
2024/02/08 14:33:55;;;;;;;22.30;12.93;;;7.70;97.40;;;;;;6269648;22;20416;-63
2024/02/08 14:36:42;;;;;;;29.60;16.13;;;7.70;97.40;;;;;;6270897;22;20054;-61
2024/02/08 14:39:28;;;;;;;28.23;16.20;;;7.70;97.40;;;;;;6270370;22;20007;-62
2024/02/08 14:42:19;;;;;;;26.48;14.88;;;7.60;97.40;;;;;;6271450;22;20012;-62
2024/02/08 14:45:11;;;;;;;25.85;14.07;;;7.60;97.40;;;;;;6272844;22;20007;-62
2024/02/08 14:48:00;;;;;;;27.20;14.05;;;7.60;97.40;;;;;;6271198;22;20018;-62
2024/02/08 14:50:49;;;;;;;27.58;16.83;;;7.60;97.50;;;;;;6273921;22;20008;-62
2024/02/08 14:53:40;;;;;;;33.67;15.90;;;7.60;97.60;;;;;;6272859;22;20008;-62
2024/02/08 14:56:27;;;;;;;24.80;13.80;;;7.50;97.60;;;;;;6271208;22;20020;-61
2024/02/08 14:59:13;;;;;;;29.58;14.30;;;7.50;97.60;;;;;;6274455;22;20015;-63
2024/02/08 15:02:12;;;;;;;24.48;14.10;;;7.60;97.60;;;;;;6243331;23;20453;-63
2024/02/08 15:05:00;;;;;;;23.33;13.55;;;7.50;97.60;;;;;;6265785;22;20015;-62
2024/02/08 15:07:51;;;;;;;24.02;14.68;;;7.50;97.60;;;;;;6272052;22;20012;-61
2024/02/08 15:10:43;;;;;;;24.50;13.75;;;7.50;97.60;;;;;;6272859;22;20039;-62
2024/02/08 15:14:07;;;;;;;28.42;14.20;;;7.50;97.60;;;;;;6274622;22;20007;-61
2024/02/08 15:16:45;;;;;;;28.83;13.93;;;7.40;97.60;;;;;;6272221;22;20349;-61
2024/02/08 15:19:31;;;;;;;26.08;14.07;;;7.40;97.70;;;;;;6273283;22;20540;-62
2024/02/08 15:25:16;;;;;;;23.55;12.65;;;7.40;97.70;;;;;;6271726;22;20035;-61
2024/02/08 15:28:25;;;;;;;20.63;12.55;;;7.40;97.70;;;;;;6270866;22;20008;-61
2024/02/08 15:37:13;;;;;;;25.17;12.73;;;7.20;97.70;;;;;;6273432;22;20046;-61
2024/02/08 15:40:16;;;;;;;21.90;12.75;;;7.20;97.80;;;;;;6271105;22;20043;-61
2024/02/08 15:43:10;;;;;;;22.63;12.07;;;7.10;97.80;;;;;;6272421;22;20018;-62
2024/02/08 15:46:01;;;;;;;17.90;12.32;;;7.10;97.90;;;;;;6271888;22;20436;-61
2024/02/08 15:48:50;;;;;;;20.73;11.32;;;7.00;97.90;;;;;;6274437;22;20004;-61
2024/02/08 15:51:37;;;;;;;19.95;12.68;;;7.10;98.00;;;;;;6270950;22;20061;-61
2024/02/08 15:54:23;;;;;;;19.52;12.68;;;7.00;98.00;;;;;;6272251;22;20015;-61
2024/02/08 15:57:12;;;;;;;17.77;12.27;;;7.00;98.10;;;;;;6270346;22;20575;-61
2024/02/08 16:00:00;;;;;;;19.70;12.65;;;7.00;98.20;;;;;;6273471;22;20349;-61
2024/02/08 16:02:51;;;;;;;20.45;12.18;;;7.00;98.30;;;;;;6271091;22;20012;-62
2024/02/08 16:05:44;;;;;;;21.02;11.32;;;6.90;98.30;;;;;;6270878;22;20042;-61
2024/02/08 16:08:33;;;;;;;22.88;11.75;;;6.90;98.40;;;;;;6271529;22;20018;-62
2024/02/08 16:11:19;;;;;;;16.42;10.60;;;6.90;98.40;;;;;;6273308;22;20006;-62
2024/02/08 16:14:15;;;;;;;18.88;11.18;;;6.80;98.30;;;;;;6272308;22;20012;-62
2024/02/08 16:17:07;;;;;;;19.45;10.43;;;6.80;98.40;;;;;;6273560;22;20149;-62
2024/02/08 16:19:56;;;;;;;15.90;9.82;;;6.70;98.50;;;;;;6272490;22;20008;-62
2024/02/08 16:22:52;;;;;;;14.07;8.15;;;6.70;98.80;;;;;;6240101;23;20353;-62
2024/02/08 16:25:44;;;;;;;15.35;9.63;;;6.70;98.60;;;;;;6243174;23;20035;-61
2024/02/08 16:28:30;;;;;;;15.65;9.25;;;6.60;98.70;;;;;;6242652;23;20008;-62
2024/02/08 16:34:22;;;;;;;17.48;10.00;;;6.60;98.80;;;;;;6242890;23;20087;-62
2024/02/08 16:37:30;;;;;;;14.25;8.88;;;6.60;98.90;;;;;;6239430;23;20419;-62
2024/02/08 16:40:16;;;;;;;14.38;9.52;;;6.60;98.90;;;;;;6242816;23;20346;-62
2024/02/08 16:43:13;;;;;;;18.38;8.77;;;6.60;98.90;;;;;;6238318;23;20071;-62
2024/02/08 16:46:05;;;;;;;12.52;8.57;;;6.50;99.00;;;;;;6241579;23;20379;-62
2024/02/08 16:48:54;;;;;;;19.35;9.73;;;6.60;99.10;;;;;;6243004;22;20066;-62
2024/02/08 16:51:47;;;;;;;21.80;10.57;;;6.60;99.10;;;;;;6242234;23;20040;-62
2024/02/08 16:54:42;;;;;;;16.50;10.18;;;6.50;99.10;;;;;;6240638;23;20062;-62
2024/02/08 16:57:32;;;;;;;18.60;9.45;;;6.60;99.10;;;;;;6238801;23;20524;-62
2024/02/08 17:00:38;;;;;;;15.75;10.50;;;6.50;99.10;;;;;;6242583;23;20070;-62
2024/02/08 17:03:37;;;;;;;20.05;10.57;;;6.50;99.20;;;;;;6239092;23;20012;-62
2024/02/08 17:06:43;;;;;;;17.90;10.77;;;6.50;99.20;;;;;;6243007;23;20064;-62
2024/02/08 17:09:43;;;;;;;17.95;9.85;;;6.50;99.30;;;;;;6241841;23;20012;-62
2024/02/08 17:12:45;;;;;;;17.23;10.27;;;6.50;99.30;;;;;;6242471;23;20083;-62